Time;durP1;ratioP1;P1;durP2;ratioP2;P2;SDS_P1;SDS_P2;PMS_P1;PMS_P2;Temp;Humidity;BMP_temperature;BMP_pressure;BME280_temperature;BME280_humidity;BME280_pressure;Samples;Min_cycle;Max_cycle;Signal;HPM_P1;HPM_P2
2021/04/19 00:02:03;;;;;;;1999.90;999.90;;;18.00;89.10;;;;;;5050122;28;20177;-51
2021/04/19 00:04:30;;;;;;;1999.90;999.90;;;18.00;89.00;;;;;;5050078;28;20537;-54
2021/04/19 00:06:56;;;;;;;1999.90;999.90;;;17.90;89.60;;;;;;5050136;28;20256;-47
2021/04/19 00:09:23;;;;;;;1999.90;999.90;;;17.90;90.10;;;;;;5050149;28;20177;-58
2021/04/19 00:11:50;;;;;;;1999.90;999.90;;;17.80;90.20;;;;;;5050046;28;20193;-53
2021/04/19 00:14:17;;;;;;;1999.90;999.90;;;17.70;90.30;;;;;;5050027;28;20177;-50
2021/04/19 00:16:44;;;;;;;1999.90;999.90;;;17.70;90.50;;;;;;5049824;28;20183;-47
2021/04/19 00:19:11;;;;;;;1999.90;999.90;;;17.60;90.70;;;;;;5049733;28;20235;-51
2021/04/19 00:21:38;;;;;;;1999.90;999.90;;;17.60;90.90;;;;;;5049922;28;20214;-56
2021/04/19 00:24:05;;;;;;;1999.90;999.90;;;17.50;90.80;;;;;;5049850;28;20209;-59
2021/04/19 00:26:32;;;;;;;1999.90;999.90;;;17.40;91.20;;;;;;5049782;28;20245;-44
2021/04/19 00:28:58;;;;;;;1999.90;999.90;;;17.30;91.50;;;;;;5049806;28;20645;-51
2021/04/19 00:31:25;;;;;;;1999.90;999.90;;;17.30;91.80;;;;;;5049906;28;20180;-49
2021/04/19 00:33:52;;;;;;;1999.90;999.90;;;17.30;91.80;;;;;;5049738;28;20169;-54
2021/04/19 00:36:19;;;;;;;1999.90;999.90;;;17.30;92.10;;;;;;5049708;28;20181;-52
2021/04/19 00:38:45;;;;;;;1999.90;999.90;;;17.30;92.40;;;;;;5049686;28;20188;-51
2021/04/19 00:41:13;;;;;;;1999.90;999.90;;;17.30;92.40;;;;;;5049623;28;20178;-62
2021/04/19 00:43:40;;;;;;;1999.90;999.90;;;17.30;92.50;;;;;;5049617;28;20161;-43
2021/04/19 00:46:07;;;;;;;1999.90;999.90;;;17.40;92.60;;;;;;5049506;28;20654;-44
2021/04/19 00:48:36;;;;;;;1999.90;999.90;;;17.50;92.60;;;;;;5049682;28;20178;-45
2021/04/19 00:51:07;;;;;;;1999.90;999.90;;;17.60;92.10;;;;;;5049440;28;20177;-58
2021/04/19 00:53:35;;;;;;;1999.90;999.90;;;17.60;92.00;;;;;;5049497;28;20652;-44
2021/04/19 00:56:04;;;;;;;1999.90;999.90;;;17.70;91.90;;;;;;5049391;28;20177;-47
2021/04/19 00:58:34;;;;;;;1999.90;999.90;;;17.70;91.80;;;;;;5049371;28;20201;-52
2021/04/19 01:01:03;;;;;;;1999.90;999.90;;;17.70;91.60;;;;;;5049302;28;20663;-43
2021/04/19 01:03:30;;;;;;;1999.90;999.90;;;17.70;91.50;;;;;;5049324;28;20197;-62
2021/04/19 01:05:57;;;;;;;1999.90;999.90;;;17.70;91.40;;;;;;5049296;28;20201;-54
2021/04/19 01:08:24;;;;;;;1999.90;999.90;;;17.60;91.50;;;;;;5048967;28;20172;-39
2021/04/19 01:10:51;;;;;;;1999.90;999.90;;;17.60;91.60;;;;;;5050396;28;20173;-57
2021/04/19 01:13:18;;;;;;;1999.90;999.90;;;17.50;91.70;;;;;;5052526;28;20214;-39
2021/04/19 01:15:45;;;;;;;1999.90;999.90;;;17.50;91.80;;;;;;5052447;28;20177;-51
2021/04/19 01:18:12;;;;;;;1999.90;999.90;;;17.50;91.50;;;;;;5052580;28;20244;-61
2021/04/19 01:20:49;;;;;;;1999.90;999.90;;;17.50;91.40;;;;;;5052257;28;20297;-49
2021/04/19 01:23:17;;;;;;;1999.90;999.90;;;17.50;91.30;;;;;;5052571;28;20603;-63
2021/04/19 01:25:45;;;;;;;1999.90;999.90;;;17.50;91.40;;;;;;5052521;28;20165;-43
2021/04/19 01:28:12;;;;;;;1999.90;999.90;;;17.50;91.60;;;;;;5052523;28;20210;-57
2021/04/19 01:30:45;;;;;;;1999.90;999.90;;;17.50;91.50;;;;;;5052464;28;20173;-49
2021/04/19 01:33:13;;;;;;;1999.90;999.90;;;17.30;92.10;;;;;;5052287;28;20212;-60
2021/04/19 01:35:40;;;;;;;1999.90;999.90;;;17.30;92.20;;;;;;5052448;28;20221;-41
2021/04/19 01:38:10;;;;;;;1999.90;999.90;;;17.30;92.20;;;;;;5052313;28;20168;-64
2021/04/19 01:40:37;;;;;;;1999.90;999.90;;;17.40;92.20;;;;;;5052587;28;20618;-44
2021/04/19 01:43:05;;;;;;;1999.90;999.90;;;17.40;91.90;;;;;;5052311;28;20200;-41
2021/04/19 01:45:32;;;;;;;1999.90;999.90;;;17.40;91.80;;;;;;5052366;28;20253;-40
2021/04/19 01:47:59;;;;;;;1999.90;999.90;;;17.40;92.10;;;;;;5052353;28;20581;-55
2021/04/19 01:50:30;;;;;;;1999.90;999.90;;;17.40;92.10;;;;;;5052120;28;20612;-48
2021/04/19 01:52:59;;;;;;;1999.90;999.90;;;17.30;92.30;;;;;;5052225;28;20550;-55
2021/04/19 01:55:30;;;;;;;1999.90;999.90;;;17.40;92.00;;;;;;5051949;28;20177;-60
2021/04/19 01:58:00;;;;;;;1999.90;999.90;;;17.40;92.00;;;;;;5052123;28;20253;-47
2021/04/19 02:00:29;;;;;;;1999.90;999.90;;;17.30;91.80;;;;;;5051873;28;20204;-63
2021/04/19 02:02:59;;;;;;;1999.90;999.90;;;17.30;91.60;;;;;;5051981;28;20180;-57
2021/04/19 02:05:47;;;;;;;1999.90;999.90;;;17.30;91.80;;;;;;5051845;28;20174;-54
2021/04/19 02:08:50;;;;;;;1999.90;999.90;;;17.20;92.20;;;;;;5051901;28;20165;-52
2021/04/19 02:11:38;;;;;;;1999.90;999.90;;;17.00;92.60;;;;;;5051738;28;20260;-59
2021/04/19 02:14:32;;;;;;;1999.90;999.90;;;16.90;92.90;;;;;;5051974;28;20631;-59
2021/04/19 02:17:04;;;;;;;1999.90;999.90;;;16.80;93.30;;;;;;5051672;28;20210;-57
2021/04/19 02:19:43;;;;;;;1999.90;999.90;;;16.70;93.50;;;;;;5050063;28;20748;-48
2021/04/19 02:22:34;;;;;;;1999.90;999.90;;;16.70;93.90;;;;;;5051138;28;20191;-61
2021/04/19 02:25:38;;;;;;;1999.90;999.90;;;16.50;94.40;;;;;;5051093;28;20201;-54
2021/04/19 02:28:16;;;;;;;1999.90;999.90;;;16.50;94.50;;;;;;5052415;28;20182;-46
2021/04/19 02:30:54;;;;;;;1999.90;999.90;;;16.50;94.60;;;;;;5051459;28;20642;-52
2021/04/19 02:33:25;;;;;;;1999.90;999.90;;;16.50;94.90;;;;;;5050163;28;20161;-62
2021/04/19 02:35:52;;;;;;;1999.90;999.90;;;16.50;94.90;;;;;;5051407;28;20150;-52
2021/04/19 02:38:29;;;;;;;1999.90;999.90;;;16.50;95.10;;;;;;5051378;28;20187;-52
2021/04/19 02:41:00;;;;;;;1999.90;999.90;;;16.40;95.10;;;;;;5050095;28;20216;-47
2021/04/19 02:43:36;;;;;;;1999.90;999.90;;;16.50;95.20;;;;;;5051357;28;20519;-59
2021/04/19 02:46:05;;;;;;;1999.90;999.90;;;16.50;94.90;;;;;;5051248;28;20159;-56
2021/04/19 02:48:42;;;;;;;1999.90;999.90;;;16.40;94.80;;;;;;5051223;28;20166;-59
2021/04/19 02:51:17;;;;;;;1999.90;999.90;;;16.40;94.70;;;;;;5051280;28;20590;-52
2021/04/19 02:53:45;;;;;;;1999.90;999.90;;;16.40;94.60;;;;;;5051149;28;20567;-47
2021/04/19 02:56:18;;;;;;;1999.90;999.90;;;16.40;94.70;;;;;;5050522;28;20185;-61
2021/04/19 02:59:02;;;;;;;1999.90;999.90;;;16.50;94.50;;;;;;5051051;28;20169;-60
2021/04/19 03:01:33;;;;;;;1999.90;999.90;;;16.60;94.10;;;;;;5051001;28;20189;-57
2021/04/19 03:04:05;;;;;;;1999.90;999.90;;;16.80;93.90;;;;;;5051042;28;20169;-44
2021/04/19 03:06:35;;;;;;;1999.90;999.90;;;16.70;93.80;;;;;;5050796;28;20264;-51
2021/04/19 03:09:09;;;;;;;1999.90;999.90;;;16.70;93.70;;;;;;5050767;27;20169;-52
2021/04/19 03:12:03;;;;;;;1999.90;999.90;;;16.80;93.60;;;;;;5051116;28;20162;-55
2021/04/19 03:14:43;;;;;;;1999.90;999.90;;;16.90;93.40;;;;;;5051952;28;20247;-40
2021/04/19 03:17:18;;;;;;;1999.90;999.90;;;17.00;93.20;;;;;;5050885;28;20607;-59
2021/04/19 03:19:57;;;;;;;1999.90;999.90;;;17.10;93.00;;;;;;5050559;28;20297;-51
2021/04/19 03:22:26;;;;;;;1999.90;999.90;;;17.00;93.00;;;;;;5050780;28;20165;-58
2021/04/19 03:24:57;;;;;;;1999.90;999.90;;;17.10;93.00;;;;;;5049466;28;20615;-64
2021/04/19 03:27:27;;;;;;;1999.90;999.90;;;17.20;92.70;;;;;;5050722;28;20161;-52
2021/04/19 03:29:54;;;;;;;1999.90;999.90;;;17.30;92.60;;;;;;5048595;28;20189;-59
2021/04/19 03:32:30;;;;;;;1999.90;999.90;;;17.30;92.30;;;;;;5050359;28;20173;-55
2021/04/19 03:34:59;;;;;;;1999.90;999.90;;;17.30;92.30;;;;;;5049984;28;20157;-55
2021/04/19 03:37:30;;;;;;;1999.90;999.90;;;17.30;92.30;;;;;;5050460;28;20164;-54
2021/04/19 03:40:16;;;;;;;1999.90;999.90;;;17.30;92.40;;;;;;5050209;28;20201;-49
2021/04/19 03:42:52;;;;;;;1999.90;999.90;;;17.40;92.40;;;;;;5050383;28;20176;-41
2021/04/19 03:45:22;;;;;;;1999.90;999.90;;;17.40;92.30;;;;;;5050240;28;20743;-56
2021/04/19 03:47:54;;;;;;;1999.90;999.90;;;17.30;92.40;;;;;;5050342;28;20177;-57
2021/04/19 03:50:26;;;;;;;1999.90;999.90;;;17.30;92.50;;;;;;5050287;28;20164;-51
2021/04/19 03:52:57;;;;;;;1999.90;999.90;;;17.40;92.40;;;;;;5050368;28;20211;-58
2021/04/19 03:55:31;;;;;;;1999.90;999.90;;;17.40;92.30;;;;;;5050163;28;20219;-62
2021/04/19 03:57:59;;;;;;;1999.90;999.90;;;17.40;92.30;;;;;;5050170;28;20168;-49
2021/04/19 04:00:36;;;;;;;1999.90;999.90;;;17.50;92.10;;;;;;5049943;28;20193;-54
2021/04/19 04:03:10;;;;;;;1999.90;999.90;;;17.60;92.10;;;;;;5050091;28;20157;-39
2021/04/19 04:05:40;;;;;;;1999.90;999.90;;;17.80;90.30;;;;;;5049963;28;20514;-56
2021/04/19 04:08:11;;;;;;;1999.90;999.90;;;19.20;83.50;;;;;;5049983;28;20176;-57
2021/04/19 04:10:38;;;;;;;1999.90;999.90;;;20.20;77.70;;;;;;5049928;28;20525;-37
2021/04/19 04:13:08;;;;;;;1999.90;999.90;;;20.70;74.90;;;;;;5049862;28;20189;-54
2021/04/19 04:15:35;;;;;;;1999.90;999.90;;;21.20;72.40;;;;;;5049835;28;20178;-56
2021/04/19 04:18:02;;;;;;;1999.90;999.90;;;21.50;70.10;;;;;;5049885;28;20173;-60
2021/04/19 04:20:29;;;;;;;1999.90;999.90;;;21.60;69.10;;;;;;5049522;28;20325;-57
2021/04/19 04:22:57;;;;;;;1999.90;999.90;;;21.60;68.50;;;;;;5049727;28;20161;-43
2021/04/19 04:25:25;;;;;;;1999.90;999.90;;;21.80;68.00;;;;;;5049691;28;20177;-51
2021/04/19 04:27:57;;;;;;;1999.90;999.90;;;21.90;66.90;;;;;;5050798;28;20264;-45
2021/04/19 04:30:27;;;;;;;1999.90;999.90;;;21.80;67.60;;;;;;5049566;28;20679;-53
2021/04/19 04:32:54;;;;;;;1999.90;999.90;;;21.50;71.10;;;;;;5049488;28;20206;-52
2021/04/19 04:35:24;;;;;;;1999.90;999.90;;;21.00;72.40;;;;;;5049603;28;20173;-57
2021/04/19 04:37:54;;;;;;;1999.90;999.90;;;21.40;69.80;;;;;;5049495;28;20204;-53
2021/04/19 04:40:26;;;;;;;1999.90;999.90;;;21.40;69.40;;;;;;5047914;28;20216;-51
2021/04/19 04:43:08;;;;;;;1999.90;999.90;;;21.30;69.90;;;;;;5049525;28;20157;-39
2021/04/19 04:45:39;;;;;;;1999.90;999.90;;;21.20;69.90;;;;;;5051898;28;20676;-49
2021/04/19 04:48:12;;;;;;;1999.90;999.90;;;21.00;71.80;;;;;;5052910;28;20173;-44
2021/04/19 04:50:45;;;;;;;1999.90;999.90;;;20.90;70.90;;;;;;5052878;28;20263;-48
2021/04/19 04:53:35;;;;;;;1999.90;999.90;;;21.60;68.20;;;;;;5052807;28;20198;-56
2021/04/19 04:56:03;;;;;;;1999.90;999.90;;;21.90;66.40;;;;;;5052868;28;20218;-61
2021/04/19 04:58:34;;;;;;;1999.90;999.90;;;22.10;65.40;;;;;;5053223;28;20161;-56
2021/04/19 05:01:03;;;;;;;1999.90;999.90;;;22.20;65.00;;;;;;5052850;28;20193;-46
2021/04/19 05:03:31;;;;;;;1999.90;999.90;;;22.30;64.50;;;;;;5052781;28;20172;-54
2021/04/19 05:06:04;;;;;;;1999.90;999.90;;;22.30;65.00;;;;;;5052869;28;20233;-52
2021/04/19 05:08:31;;;;;;;1999.90;999.90;;;22.40;64.30;;;;;;5052712;28;20176;-57
2021/04/19 05:11:00;;;;;;;1999.90;999.90;;;22.50;64.10;;;;;;5052785;28;20169;-37
2021/04/19 05:13:27;;;;;;;1999.90;999.90;;;22.60;63.80;;;;;;5052640;28;20168;-46
2021/04/19 05:16:02;;;;;;;1999.90;999.90;;;22.60;63.60;;;;;;5052605;28;20158;-51
2021/04/19 05:18:29;;;;;;;1999.90;999.90;;;22.50;64.30;;;;;;5052499;28;20165;-43
2021/04/19 05:20:56;;;;;;;1999.90;999.90;;;22.50;64.20;;;;;;5052124;28;20286;-44
2021/04/19 05:23:23;;;;;;;1999.90;999.90;;;22.70;63.90;;;;;;5052269;28;20222;-42
2021/04/19 05:25:53;;;;;;;1999.90;999.90;;;22.70;62.20;;;;;;5052428;28;20525;-54
2021/04/19 05:28:21;;;;;;;1999.90;999.90;;;22.80;63.60;;;;;;5052303;28;20170;-53
2021/04/19 05:30:50;;;;;;;1999.90;999.90;;;22.80;63.60;;;;;;5052168;28;20632;-59
2021/04/19 05:33:25;;;;;;;1999.90;999.90;;;22.80;63.60;;;;;;5052412;28;20165;-54
2021/04/19 05:35:52;;;;;;;1999.90;999.90;;;22.90;63.40;;;;;;5052235;28;20255;-39
2021/04/19 05:38:23;;;;;;;1999.90;999.90;;;23.00;63.70;;;;;;5052260;28;20181;-49
2021/04/19 05:40:53;;;;;;;1999.90;999.90;;;23.00;63.70;;;;;;5052075;28;20317;-49
2021/04/19 05:43:26;;;;;;;1999.90;999.90;;;22.90;64.00;;;;;;5052002;28;20162;-41
2021/04/19 05:45:54;;;;;;;1999.90;999.90;;;23.00;63.70;;;;;;5052079;28;20236;-56
2021/04/19 05:48:22;;;;;;;1999.90;999.90;;;23.00;64.20;;;;;;5052141;28;20248;-57
2021/04/19 05:50:57;;;;;;;1999.90;999.90;;;23.00;63.40;;;;;;5052083;28;20279;-48
2021/04/19 05:53:27;;;;;;;1999.90;999.90;;;23.10;62.10;;;;;;5052213;28;20180;-38
2021/04/19 05:55:57;;;;;;;1999.90;999.90;;;23.20;61.90;;;;;;5050580;28;20272;-59
2021/04/19 05:58:36;;;;;;;1999.90;999.90;;;23.20;62.20;;;;;;5044761;28;20189;-50
2021/04/19 06:01:18;;;;;;;1999.90;999.90;;;23.20;61.60;;;;;;5031520;28;20213;-45
2021/04/19 06:04:11;;;;;;;1999.90;999.90;;;23.10;61.00;;;;;;5031130;28;20327;-53
2021/04/19 06:07:11;;;;;;;1999.90;999.90;;;22.80;62.20;;;;;;5031674;28;20495;-53
2021/04/19 06:09:44;;;;;;;1999.90;999.90;;;22.70;61.90;;;;;;5030385;28;20190;-40
2021/04/19 06:12:16;;;;;;;1999.90;999.90;;;22.90;64.60;;;;;;5031023;28;20253;-44
2021/04/19 06:14:49;;;;;;;1999.90;999.90;;;22.30;72.80;;;;;;5031314;28;20528;-48
2021/04/19 06:17:17;;;;;;;1999.90;999.90;;;21.70;78.30;;;;;;5031651;28;20283;-54
2021/04/19 06:19:47;;;;;;;1999.90;999.90;;;21.40;78.70;;;;;;5030966;28;20229;-54
2021/04/19 06:22:18;;;;;;;1999.90;999.90;;;21.30;79.90;;;;;;5030638;28;20178;-48
2021/04/19 06:24:47;;;;;;;1999.90;999.90;;;21.40;80.60;;;;;;5030640;28;20169;-53
2021/04/19 06:27:20;;;;;;;1999.90;999.90;;;21.60;76.60;;;;;;5030499;28;20226;-58
2021/04/19 06:29:51;;;;;;;1999.90;999.90;;;21.70;76.80;;;;;;5030334;28;20208;-58
2021/04/19 06:32:22;;;;;;;1999.90;999.90;;;21.90;74.80;;;;;;5030438;28;20650;-52
2021/04/19 06:34:53;;;;;;;1999.90;999.90;;;22.20;72.50;;;;;;5030498;28;20173;-50
2021/04/19 06:37:21;;;;;;;1999.90;999.90;;;22.30;73.70;;;;;;5029172;28;20166;-58
2021/04/19 06:39:47;;;;;;;1999.90;999.90;;;22.40;73.30;;;;;;5030709;28;20218;-56
2021/04/19 06:42:15;;;;;;;1999.90;999.90;;;22.70;69.70;;;;;;5030573;28;20169;-60
2021/04/19 06:44:45;;;;;;;1999.90;999.90;;;22.70;70.80;;;;;;5030991;28;20165;-47
2021/04/19 06:47:12;;;;;;;1999.90;999.90;;;22.80;69.40;;;;;;5030281;28;20585;-52
2021/04/19 06:49:46;;;;;;;1999.90;999.90;;;22.90;67.80;;;;;;5030213;28;20194;-47
2021/04/19 06:52:16;;;;;;;1999.90;999.90;;;23.00;68.10;;;;;;5030212;28;20525;-41
2021/04/19 06:54:45;;;;;;;1999.90;999.90;;;23.10;65.50;;;;;;5030818;28;20202;-52
2021/04/19 06:57:20;;;;;;;1999.90;999.90;;;23.40;64.80;;;;;;5030589;28;20527;-59
2021/04/19 06:59:51;;;;;;;1999.90;999.90;;;23.50;65.00;;;;;;5030460;28;20196;-57
2021/04/19 07:02:23;;;;;;;1999.90;999.90;;;23.50;62.50;;;;;;5030084;28;20162;-40
2021/04/19 07:04:54;;;;;;;1999.90;999.90;;;23.60;63.00;;;;;;5030387;28;20166;-40
2021/04/19 07:07:31;;;;;;;1999.90;999.90;;;23.60;62.30;;;;;;5028729;28;20170;-40
2021/04/19 07:10:01;;;;;;;1999.90;999.90;;;23.70;62.70;;;;;;5030231;28;20640;-53
2021/04/19 07:12:28;;;;;;;1999.90;999.90;;;23.70;62.60;;;;;;5030025;28;20168;-40
2021/04/19 07:14:55;;;;;;;1999.90;999.90;;;23.70;62.50;;;;;;5028170;28;20231;-44
2021/04/19 07:17:23;;;;;;;1999.90;999.90;;;23.70;63.00;;;;;;5030213;28;20172;-50
2021/04/19 07:19:58;;;;;;;1999.90;999.90;;;23.60;62.50;;;;;;5029711;28;20313;-44
2021/04/19 07:22:25;;;;;;;1999.90;999.90;;;23.70;62.00;;;;;;5029127;28;20248;-40
2021/04/19 07:24:52;;;;;;;1999.90;999.90;;;23.60;63.00;;;;;;5029531;28;20185;-39
2021/04/19 07:27:19;;;;;;;1999.90;999.90;;;23.60;63.80;;;;;;5029395;28;20189;-43
2021/04/19 07:29:46;;;;;;;1999.90;999.90;;;23.60;62.40;;;;;;5029848;28;20249;-49
2021/04/19 07:32:14;;;;;;;1999.90;999.90;;;23.60;63.80;;;;;;5029892;28;20239;-41
2021/04/19 07:34:40;;;;;;;1999.90;999.90;;;23.50;64.40;;;;;;5027600;28;20959;-40
2021/04/19 07:37:12;;;;;;;1999.90;999.90;;;23.70;61.00;;;;;;5009842;28;20175;-49
2021/04/19 07:39:41;;;;;;;1999.90;999.90;;;23.60;64.50;;;;;;5010045;28;20299;-41
2021/04/19 07:42:09;;;;;;;1999.90;999.90;;;23.50;64.30;;;;;;5009808;28;20217;-51
2021/04/19 07:44:49;;;;;;;1999.90;999.90;;;23.60;64.10;;;;;;5014635;28;20189;-52
2021/04/19 07:47:26;;;;;;;1999.90;999.90;;;23.60;63.00;;;;;;5029095;28;20174;-43
2021/04/19 07:50:04;;;;;;;1999.90;999.90;;;23.60;64.80;;;;;;5030385;28;20211;-45
2021/04/19 07:52:35;;;;;;;1999.90;999.90;;;23.60;64.20;;;;;;5029477;28;20180;-44
2021/04/19 07:55:09;;;;;;;1999.90;999.90;;;23.60;64.40;;;;;;5028940;28;20170;-45
2021/04/19 07:57:37;;;;;;;1999.90;999.90;;;23.60;64.80;;;;;;5029296;28;20166;-54
2021/04/19 08:00:07;;;;;;;1999.90;999.90;;;23.60;65.30;;;;;;5028306;28;20253;-50
2021/04/19 08:02:34;;;;;;;1999.90;999.90;;;23.80;62.30;;;;;;5028715;28;20182;-50
2021/04/19 08:05:04;;;;;;;1999.90;999.90;;;23.70;63.40;;;;;;5028677;28;20182;-45
2021/04/19 08:07:33;;;;;;;1999.90;999.90;;;23.80;62.20;;;;;;5028196;28;20306;-46
2021/04/19 08:10:05;;;;;;;1999.90;999.90;;;23.80;63.20;;;;;;5028409;28;20551;-47
2021/04/19 08:12:38;;;;;;;1999.90;999.90;;;23.80;62.80;;;;;;5028580;28;20462;-51
2021/04/19 08:15:09;;;;;;;1999.90;999.90;;;23.80;64.00;;;;;;5029339;28;20183;-55
2021/04/19 08:17:36;;;;;;;1999.90;999.90;;;23.70;63.90;;;;;;5029437;28;20621;-38
2021/04/19 08:20:09;;;;;;;1999.90;999.90;;;24.00;59.90;;;;;;5027310;28;20613;-42
2021/04/19 08:22:37;;;;;;;1999.90;999.90;;;24.00;63.30;;;;;;5027114;28;20288;-40
2021/04/19 08:25:14;;;;;;;1999.90;999.90;;;23.80;63.30;;;;;;5028994;28;20173;-52
2021/04/19 08:27:43;;;;;;;1999.90;999.90;;;23.80;62.60;;;;;;5028792;28;20170;-45
2021/04/19 08:30:16;;;;;;;1999.90;999.90;;;23.70;63.60;;;;;;5027654;28;20201;-54
2021/04/19 08:32:46;;;;;;;1999.90;999.90;;;23.80;60.30;;;;;;5028359;28;20564;-40
2021/04/19 08:35:13;;;;;;;1999.90;999.90;;;24.20;59.00;;;;;;5028918;28;20170;-39
2021/04/19 08:37:41;;;;;;;1999.90;999.90;;;23.80;63.40;;;;;;5029168;28;20518;-52
2021/04/19 08:40:10;;;;;;;1999.90;999.90;;;24.00;60.90;;;;;;5029086;28;20590;-41
2021/04/19 08:42:37;;;;;;;1999.90;999.90;;;23.70;63.70;;;;;;5029097;28;20174;-48
2021/04/19 08:45:05;;;;;;;1999.90;999.90;;;23.30;65.10;;;;;;5029155;28;20166;-56
2021/04/19 08:47:33;;;;;;;1999.90;999.90;;;23.50;62.10;;;;;;5029076;28;20257;-42
2021/04/19 08:50:02;;;;;;;1999.90;999.90;;;23.50;62.90;;;;;;5028900;28;20177;-41
2021/04/19 08:52:29;;;;;;;1999.90;999.90;;;23.10;63.90;;;;;;5028310;28;20177;-39
2021/04/19 08:54:56;;;;;;;1999.90;999.90;;;23.10;64.30;;;;;;5028425;28;20182;-57
2021/04/19 08:57:23;;;;;;;1999.90;999.90;;;23.00;65.20;;;;;;5028725;28;20184;-59
2021/04/19 08:59:53;;;;;;;1999.90;999.90;;;23.20;63.50;;;;;;5027459;28;20300;-46
2021/04/19 09:02:22;;;;;;;1999.90;999.90;;;23.40;61.80;;;;;;5028376;28;20174;-42
2021/04/19 09:05:04;;;;;;;1999.90;999.90;;;23.50;61.90;;;;;;5028644;28;20196;-42
2021/04/19 09:07:35;;;;;;;1999.90;999.90;;;23.60;59.80;;;;;;5033105;28;20170;-42
2021/04/19 09:10:03;;;;;;;1999.90;999.90;;;24.20;56.90;;;;;;5034577;28;20202;-41
2021/04/19 09:12:31;;;;;;;1999.90;999.90;;;24.50;56.30;;;;;;5035488;28;20185;-49
2021/04/19 09:15:18;;;;;;;1999.90;999.90;;;24.40;57.20;;;;;;5030824;28;20257;-50
2021/04/19 09:18:08;;;;;;;1999.90;999.90;;;24.60;56.50;;;;;;5038306;28;20174;-49
2021/04/19 09:20:50;;;;;;;1999.90;999.90;;;24.50;56.40;;;;;;5029487;28;20225;-43
2021/04/19 09:23:19;;;;;;;1999.90;999.90;;;24.50;56.00;;;;;;5026788;28;20166;-45
2021/04/19 09:25:46;;;;;;;1999.90;999.90;;;24.20;57.20;;;;;;5026116;28;20322;-41
2021/04/19 09:28:13;;;;;;;1999.90;999.90;;;24.00;57.10;;;;;;5026728;28;20170;-40
2021/04/19 09:30:47;;;;;;;1999.90;999.90;;;24.10;56.50;;;;;;5047916;28;20279;-40
2021/04/19 09:33:18;;;;;;;1999.90;999.90;;;24.20;57.30;;;;;;5028215;28;20651;-44
2021/04/19 09:35:49;;;;;;;1999.90;999.90;;;24.00;57.50;;;;;;5029330;28;20573;-46
2021/04/19 09:38:51;;;;;;;1999.90;999.90;;;24.10;57.40;;;;;;5021524;28;20300;-46
2021/04/19 09:41:18;;;;;;;1999.90;999.90;;;24.60;54.60;;;;;;5036065;27;20201;-50
2021/04/19 09:43:54;;;;;;;1999.90;999.90;;;24.40;56.50;;;;;;5031145;28;20198;-54
2021/04/19 09:46:21;;;;;;;1999.90;999.90;;;24.70;54.50;;;;;;5030905;28;20180;-53
2021/04/19 09:49:00;;;;;;;1999.90;999.90;;;25.00;54.10;;;;;;5029291;28;20178;-54
2021/04/19 09:51:38;;;;;;;1999.90;999.90;;;24.90;53.90;;;;;;5030846;28;20166;-56
2021/04/19 09:54:18;;;;;;;1999.90;999.90;;;25.20;53.10;;;;;;5030185;28;20174;-48
2021/04/19 09:56:55;;;;;;;1999.90;999.90;;;25.20;52.80;;;;;;5029783;28;20181;-45
2021/04/19 09:59:24;;;;;;;1999.90;999.90;;;24.90;52.90;;;;;;5026904;28;20265;-40
2021/04/19 10:01:54;;;;;;;1999.90;999.90;;;24.90;53.80;;;;;;5029583;28;20166;-45
2021/04/19 10:04:21;;;;;;;1999.90;999.90;;;24.70;54.00;;;;;;5030475;28;20189;-55
2021/04/19 10:06:58;;;;;;;1999.90;999.90;;;24.70;53.80;;;;;;5029095;28;20185;-39
2021/04/19 10:09:29;;;;;;;1999.90;999.90;;;24.70;53.60;;;;;;5029365;28;20162;-42
2021/04/19 10:12:03;;;;;;;1999.90;999.90;;;25.20;52.30;;;;;;5026151;28;20201;-50
2021/04/19 10:14:38;;;;;;;1999.90;999.90;;;25.20;52.40;;;;;;5030470;28;20226;-47
2021/04/19 10:17:15;;;;;;;1999.90;999.90;;;25.10;51.60;;;;;;5028613;28;20174;-47
2021/04/19 10:19:42;;;;;;;1999.90;999.90;;;25.20;52.90;;;;;;5029999;28;20225;-50
2021/04/19 10:22:11;;;;;;;1999.90;999.90;;;25.50;49.00;;;;;;5019369;28;20625;-41
2021/04/19 10:24:56;;;;;;;1999.90;999.90;;;25.80;49.60;;;;;;5026979;28;20181;-44
2021/04/19 10:27:29;;;;;;;1999.90;999.90;;;25.40;51.60;;;;;;5030232;28;20173;-50
2021/04/19 10:30:12;;;;;;;1999.90;999.90;;;25.10;52.10;;;;;;5029814;28;20667;-37
2021/04/19 10:32:40;;;;;;;1999.90;999.90;;;25.40;49.70;;;;;;5029668;28;20307;-40
2021/04/19 10:35:29;;;;;;;1999.90;999.90;;;25.20;51.50;;;;;;5029940;28;20205;-56
2021/04/19 10:37:56;;;;;;;1999.90;999.90;;;25.40;51.00;;;;;;5029010;28;20170;-40
2021/04/19 10:40:23;;;;;;;1999.90;999.90;;;25.20;51.00;;;;;;5030895;28;20206;-38
2021/04/19 10:42:50;;;;;;;1999.90;999.90;;;25.40;50.60;;;;;;5028735;28;20200;-51
2021/04/19 10:45:17;;;;;;;1999.90;999.90;;;25.80;48.40;;;;;;5028581;28;20174;-48
2021/04/19 10:47:44;;;;;;;1999.90;999.90;;;25.60;49.50;;;;;;5040040;27;20177;-41
2021/04/19 10:50:11;;;;;;;1999.90;999.90;;;25.30;49.20;;;;;;5041782;27;20234;-39
2021/04/19 10:52:39;;;;;;;1999.90;999.90;;;25.30;49.10;;;;;;5028930;28;20189;-46
2021/04/19 10:55:08;;;;;;;1999.90;999.90;;;24.90;51.10;;;;;;5030015;28;20173;-47
2021/04/19 10:57:36;;;;;;;1999.90;999.90;;;24.70;51.30;;;;;;5030222;28;20170;-57
2021/04/19 11:00:06;;;;;;;1999.90;999.90;;;25.20;50.70;;;;;;5029125;28;20768;-36
2021/04/19 11:02:35;;;;;;;1999.90;999.90;;;25.30;50.00;;;;;;5030143;28;20212;-48
2021/04/19 11:05:02;;;;;;;1999.90;999.90;;;24.70;52.30;;;;;;5030118;28;20173;-43
2021/04/19 11:07:32;;;;;;;1999.90;999.90;;;24.90;51.10;;;;;;5028296;28;20653;-39
2021/04/19 11:10:23;;;;;;;1999.90;999.90;;;24.80;51.40;;;;;;5029970;28;20170;-49
2021/04/19 11:13:09;;;;;;;1999.90;999.90;;;24.60;50.90;;;;;;5029550;28;20262;-42
2021/04/19 11:15:43;;;;;;;1999.90;999.90;;;25.10;49.60;;;;;;5028895;28;20527;-38
2021/04/19 11:18:30;;;;;;;1999.90;999.90;;;24.90;50.60;;;;;;5030050;28;20190;-46
2021/04/19 11:20:57;;;;;;;1999.90;999.90;;;24.90;52.10;;;;;;5023925;28;20233;-43
2021/04/19 11:23:27;;;;;;;1999.90;999.90;;;25.20;49.20;;;;;;5029315;28;20181;-41
2021/04/19 11:25:55;;;;;;;1999.90;999.90;;;25.60;49.00;;;;;;5029621;28;20209;-45
2021/04/19 11:28:29;;;;;;;1999.90;999.90;;;25.50;50.30;;;;;;5029012;28;20170;-51
2021/04/19 11:30:57;;;;;;;1999.90;999.90;;;25.30;50.80;;;;;;5027279;28;20174;-39
2021/04/19 11:33:26;;;;;;;1999.90;999.90;;;25.10;50.90;;;;;;5029572;28;20174;-39
2021/04/19 11:36:05;;;;;;;1999.90;999.90;;;25.30;50.30;;;;;;5028605;28;20628;-45
2021/04/19 11:38:35;;;;;;;1999.90;999.90;;;24.90;51.70;;;;;;5029715;28;20176;-44
2021/04/19 11:41:05;;;;;;;1999.90;999.90;;;24.90;51.80;;;;;;5028745;28;20687;-43
2021/04/19 11:43:37;;;;;;;1999.90;999.90;;;24.30;53.40;;;;;;5028703;28;20170;-41
2021/04/19 11:46:13;;;;;;;1999.90;999.90;;;24.30;54.20;;;;;;5028997;28;20591;-39
2021/04/19 11:48:45;;;;;;;1999.90;999.90;;;24.20;54.30;;;;;;5017414;28;20847;-49
2021/04/19 11:51:14;;;;;;;1999.90;999.90;;;24.50;52.50;;;;;;5029575;28;20158;-54
2021/04/19 11:53:47;;;;;;;1999.90;999.90;;;24.30;52.80;;;;;;5029491;28;20178;-47
2021/04/19 11:56:15;;;;;;;1999.90;999.90;;;24.70;51.60;;;;;;5028071;28;20174;-40
2021/04/19 11:58:44;;;;;;;1999.90;999.90;;;24.50;52.40;;;;;;5029320;28;20340;-39
2021/04/19 12:01:12;;;;;;;1999.90;999.90;;;24.50;52.80;;;;;;5028232;28;20205;-38
2021/04/19 12:03:41;;;;;;;1999.90;999.90;;;24.80;52.10;;;;;;5029609;28;20177;-40
2021/04/19 12:06:09;;;;;;;1999.90;999.90;;;24.50;53.00;;;;;;5029756;28;20632;-43
2021/04/19 12:08:39;;;;;;;1999.90;999.90;;;24.30;53.30;;;;;;5029713;28;20174;-40
2021/04/19 12:11:06;;;;;;;1999.90;999.90;;;24.10;52.60;;;;;;5028381;28;20173;-38
2021/04/19 12:13:32;;;;;;;1999.90;999.90;;;24.40;52.80;;;;;;5029638;28;20508;-42
2021/04/19 12:16:00;;;;;;;1999.90;999.90;;;24.50;52.40;;;;;;5029754;28;20189;-38
2021/04/19 12:18:28;;;;;;;1999.90;999.90;;;24.50;52.50;;;;;;5030120;28;20265;-38
2021/04/19 12:20:55;;;;;;;1999.90;999.90;;;24.50;51.60;;;;;;5029203;28;20245;-38